createdAt,value
2017-09-01T00:02:24.118Z,29.60
2017-09-01T00:04:51.902Z,29.60
2017-09-01T00:07:19.667Z,29.50
2017-09-01T00:09:47.476Z,29.40
2017-09-01T00:12:15.257Z,29.40
2017-09-01T00:14:43.036Z,29.20
2017-09-01T00:17:10.919Z,29.30
2017-09-01T00:19:38.660Z,29.30
2017-09-01T00:22:06.471Z,29.30
2017-09-01T00:24:34.294Z,29.30
2017-09-01T00:27:02.094Z,29.40
2017-09-01T00:29:29.896Z,29.30
2017-09-01T00:31:57.796Z,29.30
2017-09-01T00:34:25.572Z,29.30
2017-09-01T00:36:53.346Z,29.20
2017-09-01T00:39:21.173Z,29.30
2017-09-01T00:41:49.757Z,29.30
2017-09-01T00:44:17.533Z,29.10
2017-09-01T00:46:45.295Z,29.10
2017-09-01T00:49:13.076Z,29.10
2017-09-01T00:51:40.800Z,29.20
2017-09-01T00:54:08.521Z,29.30
2017-09-01T00:56:36.302Z,29.20
2017-09-01T00:59:04.099Z,29.10
2017-09-01T01:01:31.863Z,29.20
2017-09-01T01:03:59.623Z,29.10
2017-09-01T01:06:27.450Z,29.10
2017-09-01T01:08:55.312Z,29.00
2017-09-01T01:11:23.098Z,29.00
2017-09-01T01:13:50.819Z,28.90
2017-09-01T01:16:18.606Z,29.00
2017-09-01T01:18:46.380Z,28.80
2017-09-01T01:21:14.153Z,28.80
2017-09-01T01:23:41.965Z,28.80
2017-09-01T01:26:09.745Z,28.80
2017-09-01T01:28:37.464Z,28.70
2017-09-01T01:31:05.273Z,28.50
2017-09-01T01:33:33.085Z,28.50
2017-09-01T01:36:00.824Z,28.40
2017-09-01T01:38:28.657Z,28.40
2017-09-01T01:40:56.384Z,28.50
2017-09-01T01:43:24.107Z,28.50
2017-09-01T01:45:51.839Z,28.40
2017-09-01T01:48:19.642Z,28.30
2017-09-01T01:50:47.360Z,28.60
2017-09-01T01:53:15.212Z,28.50
2017-09-01T01:55:42.943Z,28.40
2017-09-01T01:58:10.688Z,28.60
2017-09-01T02:00:38.479Z,28.50
2017-09-01T02:03:06.251Z,28.50
2017-09-01T02:05:34.031Z,28.50
2017-09-01T02:08:01.822Z,28.40
2017-09-01T02:10:29.559Z,28.10
2017-09-01T02:12:57.340Z,27.70
2017-09-01T02:15:25.073Z,27.60
2017-09-01T02:17:52.789Z,27.40
2017-09-01T02:20:20.521Z,27.60
2017-09-01T02:22:48.307Z,27.70
2017-09-01T02:25:16.075Z,27.90
2017-09-01T02:27:43.787Z,28.00
2017-09-01T02:30:11.520Z,28.00
2017-09-01T02:32:39.240Z,27.70
2017-09-01T02:35:07.069Z,27.50
2017-09-01T02:37:34.901Z,27.30
2017-09-01T02:40:02.611Z,27.50
2017-09-01T02:42:30.340Z,27.50
2017-09-01T02:44:58.208Z,27.30
2017-09-01T02:47:25.933Z,27.40
2017-09-01T02:49:53.724Z,27.50
2017-09-01T02:52:21.543Z,27.50
2017-09-01T02:54:49.262Z,27.50
2017-09-01T02:57:17.014Z,27.50
2017-09-01T02:59:44.825Z,27.70
2017-09-01T03:02:12.705Z,28.10
2017-09-01T03:04:40.494Z,28.40
2017-09-01T03:07:08.313Z,28.10
2017-09-01T03:09:36.040Z,27.50
2017-09-01T03:12:03.820Z,27.10
2017-09-01T03:14:31.585Z,27.10
2017-09-01T03:16:59.298Z,27.30
2017-09-01T03:19:27.059Z,27.50
2017-09-01T03:21:54.789Z,27.40
2017-09-01T03:24:22.574Z,27.40
2017-09-01T03:26:50.301Z,27.10
2017-09-01T03:29:18.875Z,27.30
2017-09-01T03:31:46.579Z,27.30
2017-09-01T03:34:14.308Z,27.60
2017-09-01T03:36:42.099Z,27.70
2017-09-01T03:39:09.817Z,28.00
2017-09-01T03:41:37.622Z,28.00
2017-09-01T03:44:05.492Z,28.00
2017-09-01T03:46:33.276Z,28.10
2017-09-01T03:49:00.990Z,28.10
2017-09-01T03:51:28.795Z,27.90
2017-09-01T03:53:56.554Z,28.00
2017-09-01T03:56:24.269Z,28.10
2017-09-01T03:58:52.052Z,28.10
2017-09-01T04:01:19.827Z,28.10
2017-09-01T04:03:47.543Z,27.90
2017-09-01T04:06:15.339Z,28.00
2017-09-01T04:08:43.103Z,28.00
2017-09-01T04:11:10.890Z,27.90
2017-09-01T04:13:38.678Z,27.60
2017-09-01T04:16:06.396Z,27.50
2017-09-01T04:18:34.102Z,27.50
2017-09-01T04:21:01.848Z,27.60
2017-09-01T04:23:29.625Z,27.80
2017-09-01T04:25:57.330Z,27.70
2017-09-01T04:28:25.112Z,27.70
2017-09-01T04:30:52.828Z,27.50
2017-09-01T04:33:20.552Z,27.40
2017-09-01T04:35:48.353Z,27.20
2017-09-01T04:38:16.159Z,27.30
2017-09-01T04:40:43.932Z,27.00
2017-09-01T04:43:11.683Z,27.40
2017-09-01T04:45:39.443Z,27.50
2017-09-01T04:48:07.157Z,27.50
2017-09-01T04:50:34.976Z,27.50
2017-09-01T04:53:02.748Z,27.30
2017-09-01T04:55:30.489Z,27.20
2017-09-01T04:57:58.318Z,27.50
2017-09-01T05:00:26.035Z,27.50
2017-09-01T05:02:53.757Z,27.00
2017-09-01T05:05:21.591Z,26.50
2017-09-01T05:07:49.390Z,26.10
2017-09-01T05:10:17.122Z,25.70
2017-09-01T05:12:45.008Z,25.60
2017-09-01T05:15:12.785Z,25.20
2017-09-01T05:17:40.524Z,25.30
2017-09-01T05:20:08.393Z,25.10
2017-09-01T05:22:36.193Z,25.40
2017-09-01T05:25:03.944Z,25.00
2017-09-01T05:27:31.724Z,25.10
2017-09-01T05:29:59.550Z,25.70
2017-09-01T05:32:27.263Z,26.00
2017-09-01T05:34:55.043Z,26.50
2017-09-01T05:37:22.971Z,26.30
2017-09-01T05:39:50.730Z,26.50
2017-09-01T05:42:18.545Z,26.30
2017-09-01T05:44:46.249Z,26.10
2017-09-01T05:47:14.067Z,25.80
2017-09-01T05:49:41.909Z,25.60
2017-09-01T05:52:09.634Z,25.40
2017-09-01T05:54:37.400Z,25.40
2017-09-01T05:57:05.217Z,25.40
2017-09-01T05:59:33.000Z,25.50
2017-09-01T06:02:00.711Z,25.50
2017-09-01T06:04:28.502Z,25.30
2017-09-01T06:06:56.281Z,25.40
2017-09-01T06:09:24.020Z,25.30
2017-09-01T06:11:51.772Z,25.40
2017-09-01T06:14:19.571Z,25.40
2017-09-01T06:16:47.347Z,25.30
2017-09-01T06:19:15.151Z,25.30
2017-09-01T06:21:42.850Z,25.30
2017-09-01T06:24:10.624Z,25.20
2017-09-01T06:26:38.415Z,25.10
2017-09-01T06:29:06.124Z,25.10
2017-09-01T06:31:33.912Z,25.10
2017-09-01T06:34:01.622Z,25.10
2017-09-01T06:36:29.336Z,25.00
2017-09-01T06:38:57.137Z,25.10
2017-09-01T06:41:25.003Z,25.10
2017-09-01T06:43:52.730Z,25.20
2017-09-01T06:46:20.454Z,25.20
2017-09-01T06:48:48.694Z,25.20
2017-09-01T06:51:16.427Z,25.20
2017-09-01T06:53:44.208Z,25.20
2017-09-01T06:56:12.101Z,25.20
2017-09-01T06:58:40.026Z,25.10
2017-09-01T07:01:09.327Z,25.00
2017-09-01T07:03:38.027Z,25.10
2017-09-01T07:06:06.042Z,25.10
2017-09-01T07:08:34.066Z,25.10
2017-09-01T07:11:03.291Z,25.10
2017-09-01T07:13:32.549Z,25.20
2017-09-01T07:16:01.566Z,25.30
2017-09-01T07:18:29.705Z,25.30
2017-09-01T07:20:58.069Z,25.30
2017-09-01T07:23:26.064Z,25.20
2017-09-01T07:25:53.871Z,25.30
2017-09-01T07:28:21.584Z,25.30
2017-09-01T07:30:50.382Z,25.20
2017-09-01T07:33:18.160Z,25.30
2017-09-01T07:35:45.902Z,25.30
2017-09-01T07:38:13.644Z,25.40
2017-09-01T07:40:41.364Z,25.50
2017-09-01T07:43:09.160Z,25.50
2017-09-01T07:45:36.980Z,25.50
2017-09-01T07:48:04.747Z,25.60
2017-09-01T07:50:33.117Z,25.70
2017-09-01T07:53:01.686Z,25.60
2017-09-01T07:55:29.812Z,25.60
2017-09-01T07:57:57.536Z,25.50
2017-09-01T08:00:25.378Z,25.60
2017-09-01T08:02:53.107Z,25.60
2017-09-01T08:05:20.881Z,25.60
2017-09-01T08:07:48.744Z,25.60
2017-09-01T08:10:16.515Z,25.80
2017-09-01T08:12:44.243Z,26.00
2017-09-01T08:15:12.035Z,26.10
2017-09-01T08:17:39.764Z,26.20
2017-09-01T08:20:07.467Z,26.10
2017-09-01T08:22:36.013Z,26.40
2017-09-01T08:25:03.785Z,26.30
2017-09-01T08:27:31.555Z,26.50
2017-09-01T08:29:59.413Z,26.50
2017-09-01T08:32:27.600Z,26.40
2017-09-01T08:34:55.371Z,26.40
2017-09-01T08:37:23.100Z,26.60
2017-09-01T08:39:50.811Z,26.70
2017-09-01T08:42:18.558Z,26.90
2017-09-01T08:44:46.311Z,27.00
2017-09-01T08:47:14.085Z,27.00
2017-09-01T08:49:41.803Z,26.60
2017-09-01T08:52:09.528Z,26.40
2017-09-01T08:54:37.252Z,26.40
2017-09-01T08:57:05.027Z,26.60
2017-09-01T08:59:32.860Z,26.70
2017-09-01T09:02:00.576Z,26.80
2017-09-01T09:04:28.351Z,26.90
2017-09-01T09:06:56.071Z,27.00
2017-09-01T09:09:23.779Z,27.00
2017-09-01T09:11:51.548Z,26.90
2017-09-01T09:14:19.270Z,26.90
2017-09-01T09:16:46.994Z,26.90
2017-09-01T09:19:14.765Z,27.00
2017-09-01T09:21:42.508Z,27.00
2017-09-01T09:24:10.291Z,27.20
2017-09-01T09:26:38.018Z,27.20
2017-09-01T09:29:05.808Z,27.20
2017-09-01T09:31:33.599Z,27.20
2017-09-01T09:34:01.405Z,27.30
2017-09-01T09:36:29.229Z,27.20
2017-09-01T09:38:57.001Z,27.30
2017-09-01T09:41:24.774Z,27.30
2017-09-01T09:43:52.649Z,27.40
2017-09-01T09:46:20.420Z,27.20
2017-09-01T09:48:48.194Z,27.20
2017-09-01T09:51:16.000Z,27.30
2017-09-01T09:53:43.711Z,27.40
2017-09-01T09:56:11.476Z,27.40
2017-09-01T09:58:39.266Z,27.50
2017-09-01T10:01:07.041Z,27.40
2017-09-01T10:03:34.980Z,27.50
2017-09-01T10:06:02.884Z,27.50
2017-09-01T10:08:30.599Z,27.50
2017-09-01T10:10:58.306Z,27.60
2017-09-01T10:13:26.176Z,27.60
2017-09-01T10:15:53.961Z,27.70
2017-09-01T10:18:21.742Z,27.70
2017-09-01T10:20:50.232Z,27.80
2017-09-01T10:23:18.023Z,27.90
2017-09-01T10:25:45.740Z,27.90
2017-09-01T10:28:13.630Z,27.90
2017-09-01T10:30:41.352Z,27.90
2017-09-01T10:33:09.134Z,27.90
2017-09-01T10:35:36.945Z,28.00
2017-09-01T10:38:04.659Z,28.00
2017-09-01T10:40:32.377Z,28.10
2017-09-01T10:43:00.250Z,28.10
2017-09-01T10:45:27.969Z,28.10
2017-09-01T10:48:07.639Z,28.20
2017-09-01T11:04:04.590Z,28.20
2017-09-01T11:06:32.382Z,28.30
2017-09-01T11:09:00.160Z,28.30
2017-09-01T11:11:27.945Z,28.30
2017-09-01T11:13:55.675Z,28.40
2017-09-01T11:16:23.438Z,28.50
2017-09-01T11:18:56.892Z,28.50
2017-09-01T11:21:30.213Z,28.50
2017-09-01T11:24:03.512Z,28.50
2017-09-01T11:26:31.240Z,28.50
2017-09-01T11:28:59.023Z,28.70
2017-09-01T11:31:26.843Z,28.70
2017-09-01T11:33:54.568Z,28.80
2017-09-01T11:36:22.280Z,28.90
2017-09-01T11:38:50.096Z,28.90
2017-09-01T11:41:17.816Z,28.90
2017-09-01T11:43:45.530Z,29.00
2017-09-01T11:46:13.260Z,29.00
2017-09-01T11:48:40.990Z,29.00
2017-09-01T11:51:08.715Z,29.00
2017-09-01T11:53:36.460Z,29.10
2017-09-01T11:56:04.345Z,29.10
2017-09-01T11:58:32.050Z,29.10
2017-09-01T12:00:59.800Z,29.30
2017-09-01T12:03:27.515Z,29.30
2017-09-01T12:05:55.293Z,29.40
2017-09-01T12:08:23.024Z,29.40
2017-09-01T12:10:50.803Z,29.40
2017-09-01T12:13:18.644Z,29.30
2017-09-01T12:15:46.508Z,29.60
2017-09-01T12:18:14.219Z,29.40
2017-09-01T12:20:42.011Z,29.40
2017-09-01T12:23:09.760Z,29.30
2017-09-01T12:25:38.535Z,29.20
2017-09-01T12:28:06.354Z,29.20
2017-09-01T12:30:34.157Z,29.30
2017-09-01T12:35:36.329Z,29.30
2017-09-01T12:38:04.085Z,29.50
2017-09-01T12:54:04.945Z,29.60
2017-09-01T12:56:32.761Z,29.60
2017-09-01T12:59:00.682Z,29.60
2017-09-01T13:01:28.494Z,29.60
2017-09-01T13:03:58.482Z,29.60
2017-09-01T13:06:26.341Z,29.70
2017-09-01T13:24:34.782Z,29.80
2017-09-01T13:27:02.570Z,29.30
2017-09-01T13:29:30.298Z,29.50
2017-09-01T13:31:58.075Z,29.40
2017-09-01T13:34:25.867Z,29.50
2017-09-01T13:36:53.662Z,29.50
2017-09-01T13:39:28.824Z,29.50
2017-09-01T13:41:56.669Z,29.70
2017-09-01T13:44:24.633Z,30.20
2017-09-01T13:46:52.412Z,29.90
2017-09-01T13:49:20.221Z,29.90
2017-09-01T13:51:48.061Z,29.90
2017-09-01T13:54:15.800Z,29.90
2017-09-01T13:56:43.567Z,29.90
2017-09-01T13:59:11.321Z,29.90
2017-09-01T14:01:39.114Z,29.90
2017-09-01T14:04:06.842Z,29.90
2017-09-01T14:06:34.667Z,30.10
2017-09-01T14:09:02.407Z,30.20
2017-09-01T14:11:30.176Z,30.10
2017-09-01T14:13:57.897Z,30.20
2017-09-01T14:16:25.660Z,30.00
2017-09-01T14:18:53.478Z,30.00
2017-09-01T14:21:21.392Z,29.90
2017-09-01T14:23:49.136Z,30.10
2017-09-01T14:26:16.851Z,30.00
2017-09-01T14:28:44.658Z,30.10
2017-09-01T14:31:12.384Z,30.20
2017-09-01T14:33:40.132Z,30.10
2017-09-01T14:36:08.005Z,30.20
2017-09-01T14:38:35.776Z,30.80
2017-09-01T14:41:03.489Z,31.40
2017-09-01T14:43:31.208Z,31.50
2017-09-01T14:45:58.923Z,31.20
2017-09-01T14:48:26.683Z,31.20
2017-09-01T14:50:54.473Z,31.70
2017-09-01T14:53:22.193Z,31.90
2017-09-01T14:55:49.911Z,31.80
2017-09-01T14:58:17.729Z,31.50
2017-09-01T15:00:45.445Z,31.30
2017-09-01T15:03:13.233Z,31.20
2017-09-01T15:05:40.969Z,31.50
2017-09-01T15:08:08.716Z,31.50
2017-09-01T15:10:36.502Z,31.20
2017-09-01T15:13:04.449Z,31.00
2017-09-01T15:15:32.238Z,31.20
2017-09-01T15:17:59.984Z,31.40
2017-09-01T15:20:27.779Z,31.20
2017-09-01T15:22:55.562Z,31.20
2017-09-01T15:25:23.324Z,31.10
2017-09-01T15:27:51.087Z,31.30
2017-09-01T15:30:18.860Z,31.10
2017-09-01T15:32:46.623Z,31.20
2017-09-01T15:35:14.438Z,31.30
2017-09-01T15:37:42.212Z,31.80
2017-09-01T15:40:09.924Z,32.10
2017-09-01T15:42:37.782Z,31.70
2017-09-01T15:45:05.493Z,32.00
2017-09-01T15:47:33.212Z,32.10
2017-09-01T15:50:01.013Z,31.80
2017-09-01T15:52:28.766Z,31.60
2017-09-01T15:54:56.475Z,31.50
2017-09-01T15:57:24.297Z,31.70
2017-09-01T15:59:52.014Z,31.40
2017-09-01T16:02:19.732Z,31.40
2017-09-01T16:04:47.556Z,31.30
2017-09-01T16:07:15.346Z,31.20
2017-09-01T16:09:43.112Z,31.00
2017-09-01T16:12:10.880Z,31.10
2017-09-01T16:14:38.605Z,31.00
2017-09-01T16:17:06.320Z,30.90
2017-09-01T16:19:34.064Z,30.80
2017-09-01T16:22:01.846Z,30.70
2017-09-01T16:24:29.622Z,30.60
2017-09-01T16:26:57.493Z,30.60
2017-09-01T16:29:25.294Z,30.50
2017-09-01T16:31:53.062Z,30.30
2017-09-01T16:34:20.843Z,30.30
2017-09-01T16:36:48.663Z,30.50
2017-09-01T16:39:16.437Z,30.40
2017-09-01T16:41:44.239Z,30.40
2017-09-01T16:44:11.975Z,30.40
2017-09-01T16:46:39.694Z,30.30
2017-09-01T16:49:07.471Z,30.20
2017-09-01T16:51:35.205Z,30.20
2017-09-01T16:54:02.926Z,30.20
2017-09-01T16:56:30.754Z,30.10
2017-09-01T16:58:58.497Z,30.10
2017-09-01T17:01:26.225Z,30.10
2017-09-01T17:03:54.066Z,30.10
2017-09-01T17:06:21.796Z,30.00
2017-09-01T17:08:49.600Z,30.00
2017-09-01T17:11:17.534Z,29.90
2017-09-01T17:13:45.248Z,29.90
2017-09-01T17:16:15.622Z,29.90
2017-09-01T17:18:43.447Z,29.90
2017-09-01T17:21:11.232Z,29.90
2017-09-01T17:23:39.060Z,29.90
2017-09-01T17:26:06.844Z,29.80
2017-09-01T17:28:34.631Z,29.80
2017-09-01T17:31:02.710Z,29.70
2017-09-01T17:33:31.101Z,29.50
2017-09-01T17:35:59.866Z,29.50
2017-09-01T17:38:27.677Z,29.50
2017-09-01T17:40:55.905Z,29.40
2017-09-01T17:43:23.771Z,29.40
2017-09-01T17:45:51.530Z,29.40
2017-09-01T17:48:19.283Z,29.30
2017-09-01T17:50:47.012Z,29.30
2017-09-01T17:53:14.951Z,29.30
2017-09-01T17:55:42.815Z,29.20
2017-09-01T17:58:10.675Z,29.30
2017-09-01T18:00:38.405Z,29.30
2017-09-01T18:03:06.294Z,29.20
2017-09-01T18:05:34.076Z,29.20
2017-09-01T18:08:01.858Z,29.20
2017-09-01T18:10:30.450Z,29.10
2017-09-01T18:12:59.125Z,29.20
2017-09-01T18:15:26.905Z,29.20
2017-09-01T18:17:54.721Z,29.20
2017-09-01T18:20:22.504Z,29.20
2017-09-01T18:22:50.268Z,29.30
2017-09-01T18:25:17.976Z,29.20
2017-09-01T18:27:45.795Z,29.20
2017-09-01T18:30:14.128Z,29.20
2017-09-01T18:32:41.908Z,29.20
2017-09-01T18:35:09.773Z,29.20
2017-09-01T18:37:37.561Z,29.20
2017-09-01T18:40:05.365Z,29.10
2017-09-01T18:42:33.097Z,29.10
2017-09-01T18:45:00.839Z,29.20
2017-09-01T18:47:28.569Z,29.20
2017-09-01T18:49:56.466Z,29.20
2017-09-01T18:52:25.046Z,29.10
2017-09-01T18:54:52.856Z,29.10
2017-09-01T18:57:20.708Z,29.10
2017-09-01T18:59:48.475Z,29.10
2017-09-01T19:02:17.366Z,29.00
2017-09-01T19:04:45.184Z,29.10
2017-09-01T19:07:12.959Z,29.10
2017-09-01T19:09:40.794Z,29.00
2017-09-01T19:12:08.580Z,28.90
2017-09-01T19:14:36.401Z,28.90
2017-09-01T19:17:04.300Z,28.90
2017-09-01T19:19:32.196Z,28.70
2017-09-01T19:22:00.007Z,28.60
2017-09-01T19:24:27.799Z,28.60
2017-09-01T19:26:55.540Z,28.40
2017-09-01T19:29:23.328Z,28.40
2017-09-01T19:31:51.266Z,28.40
2017-09-01T19:34:19.005Z,28.30
2017-09-01T19:36:46.802Z,28.30
2017-09-01T19:39:15.452Z,28.10
2017-09-01T19:41:43.212Z,28.10
2017-09-01T19:44:10.991Z,28.10
2017-09-01T19:46:38.838Z,28.10
2017-09-01T19:49:06.555Z,28.00
2017-09-01T19:51:34.345Z,28.00
2017-09-01T19:54:02.135Z,28.00
2017-09-01T19:56:29.906Z,28.00
2017-09-01T19:58:57.690Z,27.80
2017-09-01T20:01:25.618Z,28.00
2017-09-01T20:03:53.413Z,28.10
2017-09-01T20:06:21.177Z,28.10
2017-09-01T20:08:48.942Z,28.10
2017-09-01T20:11:16.652Z,28.10
2017-09-01T20:13:46.225Z,28.00
2017-09-01T20:16:15.404Z,28.00
2017-09-01T20:18:43.513Z,28.00
2017-09-01T20:21:11.231Z,28.10
2017-09-01T20:23:39.014Z,28.00
2017-09-01T20:26:06.748Z,28.00
2017-09-01T20:28:34.470Z,27.70
2017-09-01T20:31:02.230Z,27.90
2017-09-01T20:33:30.028Z,27.90
2017-09-01T20:35:57.783Z,27.80
2017-09-01T20:38:25.496Z,27.80
2017-09-01T20:40:53.371Z,27.60
2017-09-01T20:43:21.344Z,27.40
2017-09-01T20:45:49.170Z,27.30
2017-09-01T20:48:16.894Z,27.20
2017-09-01T20:50:44.747Z,27.10
2017-09-01T20:53:12.578Z,27.10
2017-09-01T20:55:40.350Z,27.00
2017-09-01T20:58:08.067Z,26.80
2017-09-01T21:00:36.623Z,26.70
2017-09-01T21:03:04.580Z,26.60
2017-09-01T21:05:32.629Z,26.70
2017-09-01T21:08:00.457Z,26.80
2017-09-01T21:10:29.318Z,26.90
2017-09-01T21:12:57.044Z,26.90
2017-09-01T21:15:24.766Z,27.00
2017-09-01T21:17:52.608Z,27.00
2017-09-01T21:20:20.320Z,26.80
2017-09-01T21:22:48.094Z,26.70
2017-09-01T21:25:15.862Z,26.70
2017-09-01T21:27:43.649Z,26.80
2017-09-01T21:30:11.394Z,26.90
2017-09-01T21:32:39.136Z,27.00
2017-09-01T21:35:06.905Z,27.20
2017-09-01T21:37:34.711Z,27.40
2017-09-01T21:40:02.570Z,27.40
2017-09-01T21:42:30.284Z,27.40
2017-09-01T21:44:58.070Z,27.30
2017-09-01T21:47:25.843Z,27.30
2017-09-01T21:49:53.612Z,27.20
2017-09-01T21:52:21.397Z,27.10
2017-09-01T21:54:49.208Z,26.80
2017-09-01T21:57:16.964Z,26.90
2017-09-01T21:59:44.696Z,26.80
2017-09-01T22:02:12.485Z,26.70
2017-09-01T22:04:40.262Z,26.70
2017-09-01T22:07:08.050Z,26.60
2017-09-01T22:09:35.777Z,26.60
2017-09-01T22:12:03.543Z,26.60
2017-09-01T22:14:31.259Z,26.50
2017-09-01T22:16:59.009Z,26.50
2017-09-01T22:19:26.728Z,26.60
2017-09-01T22:21:54.458Z,26.50
2017-09-01T22:24:22.184Z,26.20
2017-09-01T22:26:49.958Z,26.10
2017-09-01T22:29:17.753Z,26.10
2017-09-01T22:31:45.547Z,26.00
2017-09-01T22:34:13.291Z,25.80
2017-09-01T22:36:41.008Z,25.50
2017-09-01T22:39:10.241Z,25.50
2017-09-01T22:41:37.961Z,25.40
2017-09-01T22:44:05.756Z,25.30
2017-09-01T22:46:33.725Z,25.40
2017-09-01T22:49:01.496Z,25.40
2017-09-01T22:51:29.260Z,25.30
2017-09-01T22:53:57.074Z,25.50
2017-09-01T22:56:24.936Z,25.50
2017-09-01T22:58:52.671Z,25.20
2017-09-01T23:01:20.485Z,25.00
2017-09-01T23:03:48.256Z,24.70
2017-09-01T23:06:16.056Z,24.60
2017-09-01T23:08:43.860Z,24.80
2017-09-01T23:11:11.638Z,25.00
2017-09-01T23:13:39.425Z,24.90
2017-09-01T23:16:07.144Z,24.70
2017-09-01T23:18:34.870Z,24.60
2017-09-01T23:21:02.639Z,24.70
2017-09-01T23:23:30.469Z,24.60
2017-09-01T23:25:58.253Z,24.60
2017-09-01T23:28:26.019Z,24.70
2017-09-01T23:30:53.880Z,24.60
2017-09-01T23:33:21.671Z,24.40
2017-09-01T23:35:49.390Z,24.50
2017-09-01T23:38:17.107Z,24.30
2017-09-01T23:40:44.875Z,24.20
2017-09-01T23:43:12.824Z,23.90
2017-09-01T23:45:40.769Z,23.90
2017-09-01T23:48:08.476Z,23.90
2017-09-01T23:50:36.190Z,23.80
2017-09-01T23:53:04.077Z,23.90
2017-09-01T23:55:31.792Z,23.90
2017-09-01T23:57:59.580Z,23.90
